Time;durP1;ratioP1;P1;durP2;ratioP2;P2;SDS_P1;SDS_P2;PMS_P1;PMS_P2;Temp;Humidity;BMP_temperature;BMP_pressure;BME280_temperature;BME280_humidity;BME280_pressure;Samples;Min_cycle;Max_cycle;Signal;HPM_P1;HPM_P2
2023/05/11 00:02:13;;;;;;;39.50;11.73;;;;;;;;;;5055279;28;20044;-74
2023/05/11 00:04:39;;;;;;;26.75;11.40;;;;;;;;;;5055014;28;20052;-74
2023/05/11 00:07:05;;;;;;;39.72;12.43;;;;;;;;;;5052170;28;20132;-73
2023/05/11 00:09:31;;;;;;;35.17;12.50;;;;;;;;;;5057128;28;20204;-73
2023/05/11 00:11:57;;;;;;;52.47;12.30;;;;;;;;;;5054790;28;20132;-73
2023/05/11 00:14:23;;;;;;;32.33;12.88;;;;;;;;;;5051855;28;20094;-73
2023/05/11 00:16:50;;;;;;;46.58;11.77;;;;;;;;;;5055250;28;20056;-74
2023/05/11 00:19:16;;;;;;;60.38;11.05;;;;;;;;;;5054718;28;20623;-74
2023/05/11 00:21:42;;;;;;;39.42;11.52;;;;;;;;;;5050096;28;20082;-74
2023/05/11 00:24:08;;;;;;;34.28;10.98;;;;;;;;;;5051408;28;20047;-74
2023/05/11 00:26:34;;;;;;;47.08;11.52;;;;;;;;;;5052024;28;20055;-73
2023/05/11 00:29:00;;;;;;;43.63;11.13;;;;;;;;;;5051473;28;20472;-74
2023/05/11 00:31:26;;;;;;;47.50;11.85;;;;;;;;;;5035625;28;20145;-74
2023/05/11 00:33:53;;;;;;;37.00;14.65;;;;;;;;;;5049449;28;20440;-74
2023/05/11 00:36:19;;;;;;;22.75;12.38;;;;;;;;;;5064137;28;20139;-73
2023/05/11 00:38:46;;;;;;;31.10;13.10;;;;;;;;;;5050638;28;20626;-74
2023/05/11 00:41:12;;;;;;;34.08;14.45;;;;;;;;;;5049840;28;20051;-74
2023/05/11 00:43:38;;;;;;;26.85;12.43;;;;;;;;;;5051782;28;20790;-74
2023/05/11 00:46:04;;;;;;;42.75;14.75;;;;;;;;;;5049485;28;20083;-74
2023/05/11 00:48:31;;;;;;;53.80;13.10;;;;;;;;;;5038759;28;20055;-74
2023/05/11 00:50:59;;;;;;;36.85;12.15;;;;;;;;;;5033773;28;20066;-74
2023/05/11 00:53:25;;;;;;;94.65;14.88;;;;;;;;;;5051141;28;21693;-74
2023/05/11 00:55:51;;;;;;;44.10;13.85;;;;;;;;;;5034315;28;20052;-73
2023/05/11 00:58:17;;;;;;;48.67;14.32;;;;;;;;;;5051037;28;20093;-73
2023/05/11 01:00:43;;;;;;;46.85;13.98;;;;;;;;;;5049720;28;20108;-73
2023/05/11 01:03:12;;;;;;;64.53;14.85;;;;;;;;;;5053147;28;20046;-73
2023/05/11 01:05:48;;;;;;;99.85;13.93;;;;;;;;;;5053500;28;20052;-73
2023/05/11 01:08:18;;;;;;;90.97;15.50;;;;;;;;;;5050932;28;20040;-73
2023/05/11 01:10:47;;;;;;;82.18;15.88;;;;;;;;;;5053690;28;20036;-73
2023/05/11 01:13:18;;;;;;;121.45;16.55;;;;;;;;;;5055308;28;20040;-73
2023/05/11 01:15:47;;;;;;;59.40;14.88;;;;;;;;;;5056617;28;20098;-74
2023/05/11 01:18:16;;;;;;;78.65;16.30;;;;;;;;;;5054544;28;20041;-73
2023/05/11 01:20:45;;;;;;;51.13;14.70;;;;;;;;;;5068357;28;20047;-73
2023/05/11 01:23:30;;;;;;;115.78;15.50;;;;;;;;;;5035182;28;20044;-73
2023/05/11 01:26:05;;;;;;;112.07;15.05;;;;;;;;;;5053828;28;20039;-73
2023/05/11 01:28:50;;;;;;;57.25;13.60;;;;;;;;;;5057904;28;20044;-73
2023/05/11 01:31:17;;;;;;;45.20;14.02;;;;;;;;;;5059057;28;20151;-73
2023/05/11 01:34:10;;;;;;;70.78;14.68;;;;;;;;;;5058872;28;20036;-72
2023/05/11 01:36:38;;;;;;;56.05;14.70;;;;;;;;;;5033436;28;20169;-73
2023/05/11 01:39:06;;;;;;;28.10;12.60;;;;;;;;;;5042493;28;20040;-72
2023/05/11 01:41:34;;;;;;;32.72;12.65;;;;;;;;;;5064944;28;20035;-73
2023/05/11 01:44:02;;;;;;;33.00;12.25;;;;;;;;;;5061917;28;20044;-73
2023/05/11 01:46:31;;;;;;;27.92;12.40;;;;;;;;;;5056141;28;20080;-73
2023/05/11 01:48:58;;;;;;;43.45;13.27;;;;;;;;;;5053661;28;20052;-73
2023/05/11 01:51:26;;;;;;;24.85;12.32;;;;;;;;;;5054386;28;20051;-73
2023/05/11 01:53:53;;;;;;;21.23;11.27;;;;;;;;;;5054695;28;20047;-73
2023/05/11 01:56:21;;;;;;;18.20;10.63;;;;;;;;;;5054390;28;20897;-73
2023/05/11 01:58:47;;;;;;;17.60;10.05;;;;;;;;;;5053870;28;20071;-73
2023/05/11 02:01:15;;;;;;;15.75;10.65;;;;;;;;;;5051290;28;20040;-73
2023/05/11 02:03:42;;;;;;;14.00;9.18;;;;;;;;;;5035832;28;20409;-73
2023/05/11 02:06:09;;;;;;;19.02;10.02;;;;;;;;;;5053530;28;20106;-74
2023/05/11 02:08:37;;;;;;;17.50;10.52;;;;;;;;;;5051244;28;20047;-73
2023/05/11 02:11:03;;;;;;;17.42;10.60;;;;;;;;;;5054859;28;20058;-74
2023/05/11 02:13:29;;;;;;;19.58;12.05;;;;;;;;;;5049933;28;20055;-74
2023/05/11 02:15:57;;;;;;;16.05;10.98;;;;;;;;;;5070737;28;20041;-74
2023/05/11 02:18:24;;;;;;;16.83;11.00;;;;;;;;;;5051339;28;20056;-74
2023/05/11 02:20:50;;;;;;;18.40;11.23;;;;;;;;;;5036719;28;20193;-73
2023/05/11 02:23:17;;;;;;;17.67;10.88;;;;;;;;;;5051842;28;20082;-73
2023/05/11 02:25:44;;;;;;;14.75;10.32;;;;;;;;;;5054840;28;20051;-74
2023/05/11 02:28:10;;;;;;;16.98;11.05;;;;;;;;;;5052644;28;20048;-73
2023/05/11 02:30:40;;;;;;;25.50;14.65;;;;;;;;;;5053246;28;20064;-73
2023/05/11 02:33:08;;;;;;;29.02;14.63;;;;;;;;;;5067836;28;20051;-73
2023/05/11 02:35:38;;;;;;;23.23;13.48;;;;;;;;;;5054615;28;20048;-73
2023/05/11 02:38:04;;;;;;;17.65;12.15;;;;;;;;;;5056623;28;20044;-73
2023/05/11 02:40:32;;;;;;;23.98;14.13;;;;;;;;;;5051718;28;20371;-73
2023/05/11 02:43:01;;;;;;;21.95;11.68;;;;;;;;;;5051408;28;22179;-74
2023/05/11 02:45:31;;;;;;;16.48;10.57;;;;;;;;;;5051847;28;20048;-73
2023/05/11 02:47:58;;;;;;;11.85;8.35;;;;;;;;;;5054604;28;20134;-73
2023/05/11 02:50:27;;;;;;;10.48;7.80;;;;;;;;;;5048736;28;20419;-73
2023/05/11 02:52:55;;;;;;;10.70;8.30;;;;;;;;;;5050494;28;20040;-73
2023/05/11 02:55:21;;;;;;;10.00;7.75;;;;;;;;;;5051369;28;20109;-73
2023/05/11 02:57:48;;;;;;;8.57;6.53;;;;;;;;;;5052447;28;21720;-73
2023/05/11 03:00:16;;;;;;;10.30;7.95;;;;;;;;;;5048561;28;20060;-73
2023/05/11 03:02:42;;;;;;;9.93;8.13;;;;;;;;;;5052344;28;20076;-73
2023/05/11 03:05:08;;;;;;;13.90;9.38;;;;;;;;;;5052815;28;20586;-73
2023/05/11 03:07:34;;;;;;;14.60;10.98;;;;;;;;;;5053008;28;21796;-73
2023/05/11 03:10:01;;;;;;;12.30;8.48;;;;;;;;;;5047517;28;20076;-73
2023/05/11 03:12:30;;;;;;;11.63;7.82;;;;;;;;;;5056512;28;20051;-73
2023/05/11 03:14:58;;;;;;;9.90;7.70;;;;;;;;;;5050646;28;20053;-73
2023/05/11 03:17:24;;;;;;;12.82;8.68;;;;;;;;;;5051873;28;20035;-73
2023/05/11 03:19:51;;;;;;;11.73;8.50;;;;;;;;;;5049888;28;20087;-73
2023/05/11 03:22:17;;;;;;;13.20;9.48;;;;;;;;;;5051030;28;20048;-74
2023/05/11 03:24:44;;;;;;;12.90;9.15;;;;;;;;;;5047557;28;20491;-74
2023/05/11 03:27:11;;;;;;;13.10;8.68;;;;;;;;;;5048427;28;20128;-74
2023/05/11 03:29:38;;;;;;;16.13;7.70;;;;;;;;;;5051698;28;21478;-74
2023/05/11 03:32:05;;;;;;;9.55;6.97;;;;;;;;;;5050376;28;20083;-73
2023/05/11 03:34:31;;;;;;;16.02;7.18;;;;;;;;;;5031330;28;20115;-73
2023/05/11 03:36:58;;;;;;;10.70;6.25;;;;;;;;;;5052384;28;20160;-73
2023/05/11 03:39:25;;;;;;;8.95;6.40;;;;;;;;;;5053311;28;20040;-73
2023/05/11 03:41:51;;;;;;;7.93;5.85;;;;;;;;;;5033967;28;20527;-73
2023/05/11 03:44:19;;;;;;;6.82;5.20;;;;;;;;;;5051694;28;20062;-73
2023/05/11 03:46:47;;;;;;;6.47;4.80;;;;;;;;;;5051859;28;20048;-73
2023/05/11 03:49:13;;;;;;;5.40;3.70;;;;;;;;;;5052800;28;20087;-74
2023/05/11 03:51:40;;;;;;;5.35;3.88;;;;;;;;;;5053663;28;20130;-74
2023/05/11 03:54:06;;;;;;;5.13;3.97;;;;;;;;;;5056122;28;20048;-73
2023/05/11 03:56:35;;;;;;;4.45;3.63;;;;;;;;;;5053043;28;20097;-73
2023/05/11 03:59:02;;;;;;;5.10;3.10;;;;;;;;;;5048374;28;20091;-73
2023/05/11 04:01:29;;;;;;;4.78;3.53;;;;;;;;;;5046690;28;20688;-73
2023/05/11 04:03:55;;;;;;;5.15;3.97;;;;;;;;;;5054281;28;20047;-74
2023/05/11 04:06:21;;;;;;;6.28;4.53;;;;;;;;;;5051143;28;20051;-74
2023/05/11 04:08:47;;;;;;;7.78;5.55;;;;;;;;;;5052451;28;20136;-73
2023/05/11 04:11:13;;;;;;;10.68;5.75;;;;;;;;;;5036145;28;20534;-73
2023/05/11 04:13:39;;;;;;;8.07;5.60;;;;;;;;;;5055459;28;20472;-73
2023/05/11 04:16:06;;;;;;;8.57;6.20;;;;;;;;;;5018204;28;20071;-74
2023/05/11 04:18:32;;;;;;;12.15;7.00;;;;;;;;;;5040810;28;21614;-74
2023/05/11 04:21:01;;;;;;;11.05;7.32;;;;;;;;;;5053371;28;20630;-74
2023/05/11 04:23:27;;;;;;;11.40;7.28;;;;;;;;;;5051930;28;20138;-74
2023/05/11 04:25:55;;;;;;;12.77;7.85;;;;;;;;;;5042207;28;20213;-74
2023/05/11 04:28:22;;;;;;;14.82;8.38;;;;;;;;;;5053739;28;20048;-74
2023/05/11 04:30:53;;;;;;;15.98;8.32;;;;;;;;;;5056068;28;20074;-76
2023/05/11 04:33:20;;;;;;;14.70;9.45;;;;;;;;;;5053719;28;20098;-77
2023/05/11 04:35:46;;;;;;;13.48;8.88;;;;;;;;;;5050884;28;20044;-78
2023/05/11 04:38:12;;;;;;;14.40;8.23;;;;;;;;;;5053484;28;20047;-77
2023/05/11 04:40:38;;;;;;;13.73;9.10;;;;;;;;;;5049727;28;21506;-78
2023/05/11 04:43:04;;;;;;;16.50;9.63;;;;;;;;;;5051385;28;20059;-77
2023/05/11 04:45:30;;;;;;;14.77;8.80;;;;;;;;;;5051305;28;20046;-77
2023/05/11 04:47:57;;;;;;;16.83;9.75;;;;;;;;;;5053498;28;20361;-77
2023/05/11 04:50:23;;;;;;;14.02;9.32;;;;;;;;;;5069137;28;20499;-77
2023/05/11 04:52:49;;;;;;;16.05;8.73;;;;;;;;;;5052953;28;20055;-77
2023/05/11 04:55:15;;;;;;;13.77;8.40;;;;;;;;;;5055410;28;20044;-77
2023/05/11 04:57:41;;;;;;;14.80;8.35;;;;;;;;;;5039782;28;20488;-77
2023/05/11 05:00:08;;;;;;;12.18;8.52;;;;;;;;;;5054629;28;20632;-77
2023/05/11 05:02:34;;;;;;;13.77;8.30;;;;;;;;;;5056170;28;20036;-77
2023/05/11 05:05:00;;;;;;;12.13;7.93;;;;;;;;;;5071073;28;20074;-77
2023/05/11 05:07:27;;;;;;;15.27;9.15;;;;;;;;;;5036520;28;20184;-76
2023/05/11 05:09:53;;;;;;;14.65;8.90;;;;;;;;;;5055938;28;20040;-76
2023/05/11 05:12:19;;;;;;;10.73;7.60;;;;;;;;;;5058228;28;20079;-76
2023/05/11 05:14:45;;;;;;;12.25;7.82;;;;;;;;;;5057905;28;20399;-76
2023/05/11 05:17:11;;;;;;;13.60;8.77;;;;;;;;;;5057328;28;20151;-77
2023/05/11 05:19:37;;;;;;;15.77;9.00;;;;;;;;;;5060777;28;20113;-77
2023/05/11 05:22:04;;;;;;;14.85;8.30;;;;;;;;;;5059460;28;20044;-76
2023/05/11 05:24:30;;;;;;;15.25;8.85;;;;;;;;;;5045526;28;20043;-76
2023/05/11 05:26:56;;;;;;;12.85;8.05;;;;;;;;;;5042466;28;20040;-77
2023/05/11 05:29:22;;;;;;;14.43;7.60;;;;;;;;;;5061049;28;20052;-77
2023/05/11 05:31:48;;;;;;;14.35;9.43;;;;;;;;;;5058882;28;20116;-78
2023/05/11 05:34:14;;;;;;;14.55;9.68;;;;;;;;;;5059030;28;20564;-78
2023/05/11 05:36:40;;;;;;;13.90;9.27;;;;;;;;;;5041842;28;20036;-74
2023/05/11 05:39:10;;;;;;;17.83;9.70;;;;;;;;;;5061940;28;20056;-74
2023/05/11 05:41:37;;;;;;;21.08;10.13;;;;;;;;;;5060144;28;20184;-74
2023/05/11 05:44:03;;;;;;;16.77;10.57;;;;;;;;;;5058899;28;20049;-74
2023/05/11 05:46:31;;;;;;;18.63;10.27;;;;;;;;;;5059712;28;20090;-74
2023/05/11 05:48:57;;;;;;;19.58;9.85;;;;;;;;;;5058462;28;20062;-74
2023/05/11 05:51:23;;;;;;;19.45;9.90;;;;;;;;;;5044705;28;20055;-74
2023/05/11 05:53:49;;;;;;;13.00;8.32;;;;;;;;;;5065653;28;20044;-74
2023/05/11 05:56:16;;;;;;;10.15;6.95;;;;;;;;;;5059221;28;20033;-74
2023/05/11 05:58:42;;;;;;;9.00;6.47;;;;;;;;;;5062257;28;20040;-74
2023/05/11 06:01:08;;;;;;;10.07;7.22;;;;;;;;;;5042106;28;20087;-75
2023/05/11 06:03:34;;;;;;;10.10;6.60;;;;;;;;;;5059842;28;20040;-74
2023/05/11 06:06:03;;;;;;;14.93;7.47;;;;;;;;;;5056775;28;20536;-73
2023/05/11 06:08:29;;;;;;;10.27;7.03;;;;;;;;;;5060065;28;20045;-73
2023/05/11 06:10:55;;;;;;;11.48;6.40;;;;;;;;;;5059573;28;20381;-73
2023/05/11 06:13:21;;;;;;;10.35;6.65;;;;;;;;;;5075802;28;20052;-73
2023/05/11 06:15:51;;;;;;;8.55;6.15;;;;;;;;;;5062351;28;20447;-73
2023/05/11 06:18:17;;;;;;;10.85;7.75;;;;;;;;;;5059122;28;20040;-74
2023/05/11 06:20:43;;;;;;;11.05;7.45;;;;;;;;;;5062549;28;20043;-73
2023/05/11 06:23:09;;;;;;;13.65;7.25;;;;;;;;;;5072903;28;20040;-74
2023/05/11 06:25:35;;;;;;;11.18;7.68;;;;;;;;;;5090505;28;20044;-74
2023/05/11 06:28:01;;;;;;;10.10;7.05;;;;;;;;;;5093735;28;20032;-74
2023/05/11 06:30:28;;;;;;;10.77;7.40;;;;;;;;;;5079114;28;20124;-74
2023/05/11 06:32:54;;;;;;;10.43;6.93;;;;;;;;;;5055430;28;20051;-74
2023/05/11 06:35:21;;;;;;;10.40;7.57;;;;;;;;;;5053739;28;20102;-74
2023/05/11 06:37:47;;;;;;;13.05;7.25;;;;;;;;;;5062750;28;20048;-74
2023/05/11 06:40:15;;;;;;;9.77;7.03;;;;;;;;;;5076989;28;21688;-74
2023/05/11 06:42:41;;;;;;;9.27;7.15;;;;;;;;;;5060461;28;20044;-74
2023/05/11 06:45:07;;;;;;;16.77;7.97;;;;;;;;;;5043201;28;20094;-74
2023/05/11 06:47:34;;;;;;;12.45;7.57;;;;;;;;;;5075885;28;20052;-74
2023/05/11 06:50:00;;;;;;;9.05;7.05;;;;;;;;;;5042438;28;20055;-74
2023/05/11 06:52:26;;;;;;;11.63;7.95;;;;;;;;;;5059204;28;20036;-74
2023/05/11 06:54:52;;;;;;;10.32;7.50;;;;;;;;;;5059132;28;20719;-74
2023/05/11 06:57:18;;;;;;;11.35;7.68;;;;;;;;;;5042515;28;20043;-74
2023/05/11 06:59:44;;;;;;;13.15;8.60;;;;;;;;;;5061545;28;20052;-77
2023/05/11 07:02:10;;;;;;;10.15;8.20;;;;;;;;;;5060717;28;20063;-77
2023/05/11 07:04:37;;;;;;;10.55;7.65;;;;;;;;;;5047944;28;20044;-77
2023/05/11 07:07:03;;;;;;;13.25;9.43;;;;;;;;;;5060107;28;20197;-77
2023/05/11 07:09:29;;;;;;;13.50;8.80;;;;;;;;;;5057383;28;21176;-78
2023/05/11 07:11:56;;;;;;;11.13;8.43;;;;;;;;;;5060117;28;20041;-77
2023/05/11 07:14:22;;;;;;;11.90;8.65;;;;;;;;;;5059554;28;21490;-77
2023/05/11 07:16:51;;;;;;;15.38;10.50;;;;;;;;;;5059785;28;20048;-77
2023/05/11 07:19:17;;;;;;;16.98;10.07;;;;;;;;;;5060262;28;20045;-74
2023/05/11 07:21:44;;;;;;;15.60;9.82;;;;;;;;;;5060280;28;20044;-74
2023/05/11 07:24:10;;;;;;;12.60;8.73;;;;;;;;;;5058651;28;20052;-74
2023/05/11 07:26:36;;;;;;;12.50;9.07;;;;;;;;;;5058582;28;20492;-74
2023/05/11 07:29:02;;;;;;;15.68;9.25;;;;;;;;;;5057355;28;20074;-74
2023/05/11 07:31:28;;;;;;;11.13;8.05;;;;;;;;;;5042130;28;20048;-74
2023/05/11 07:33:55;;;;;;;11.73;8.23;;;;;;;;;;5059397;28;21076;-74
2023/05/11 07:36:21;;;;;;;11.13;7.28;;;;;;;;;;5074183;28;20784;-75
2023/05/11 07:38:47;;;;;;;10.50;7.60;;;;;;;;;;5055952;28;20074;-74
2023/05/11 07:41:13;;;;;;;10.00;7.72;;;;;;;;;;5055649;28;20543;-75
2023/05/11 07:43:40;;;;;;;11.45;7.93;;;;;;;;;;5047105;28;20047;-76
2023/05/11 07:46:06;;;;;;;9.43;7.32;;;;;;;;;;5056539;28;20621;-76
2023/05/11 07:48:32;;;;;;;9.65;6.95;;;;;;;;;;5058934;28;20404;-76
2023/05/11 07:51:00;;;;;;;11.43;7.72;;;;;;;;;;5057085;28;20044;-77
2023/05/11 07:53:26;;;;;;;10.75;7.53;;;;;;;;;;5046227;28;20097;-75
2023/05/11 07:55:52;;;;;;;9.95;7.40;;;;;;;;;;5058876;28;20512;-75
2023/05/11 07:58:18;;;;;;;10.60;7.50;;;;;;;;;;5040196;28;20040;-75
2023/05/11 08:00:44;;;;;;;11.13;7.88;;;;;;;;;;5041828;28;20063;-75
2023/05/11 08:03:10;;;;;;;10.68;7.85;;;;;;;;;;5039512;28;20264;-75
2023/05/11 08:05:36;;;;;;;9.52;7.13;;;;;;;;;;5057655;28;20040;-76
2023/05/11 08:08:03;;;;;;;8.38;6.32;;;;;;;;;;5058988;28;20044;-76
2023/05/11 08:10:30;;;;;;;7.68;6.07;;;;;;;;;;5058833;28;20051;-77
2023/05/11 08:12:57;;;;;;;8.60;6.07;;;;;;;;;;5054389;28;20495;-76
2023/05/11 08:15:23;;;;;;;6.10;4.85;;;;;;;;;;5072775;28;20055;-76
2023/05/11 08:17:49;;;;;;;6.93;5.65;;;;;;;;;;5038947;28;20040;-77
2023/05/11 08:20:16;;;;;;;9.88;5.65;;;;;;;;;;5056061;28;20069;-75
2023/05/11 08:22:42;;;;;;;7.88;6.20;;;;;;;;;;5056261;28;20055;-77
2023/05/11 08:25:08;;;;;;;6.50;5.70;;;;;;;;;;5055203;28;20082;-76
2023/05/11 08:27:34;;;;;;;7.25;6.28;;;;;;;;;;5056478;28;20556;-75
2023/05/11 08:30:00;;;;;;;8.10;6.20;;;;;;;;;;5038863;28;20070;-75
2023/05/11 08:32:26;;;;;;;9.23;6.85;;;;;;;;;;5056392;28;20044;-76
2023/05/11 08:34:53;;;;;;;9.73;7.20;;;;;;;;;;5056628;28;20440;-76
2023/05/11 08:37:19;;;;;;;9.20;6.85;;;;;;;;;;5074154;28;20457;-76
2023/05/11 08:39:45;;;;;;;7.20;6.30;;;;;;;;;;5061933;28;20503;-75
2023/05/11 08:42:13;;;;;;;6.90;6.13;;;;;;;;;;5056938;28;20093;-75
2023/05/11 08:44:42;;;;;;;6.88;5.80;;;;;;;;;;5057757;28;20075;-74
2023/05/11 08:47:08;;;;;;;5.28;4.40;;;;;;;;;;5056874;28;20507;-75
2023/05/11 08:49:36;;;;;;;6.05;4.18;;;;;;;;;;5056079;28;20464;-75
2023/05/11 08:52:04;;;;;;;5.32;3.97;;;;;;;;;;5057843;28;20388;-74
2023/05/11 08:54:30;;;;;;;4.65;4.00;;;;;;;;;;5056918;28;20055;-74
2023/05/11 08:56:57;;;;;;;5.60;3.95;;;;;;;;;;5060477;28;20041;-75
2023/05/11 08:59:25;;;;;;;6.10;4.07;;;;;;;;;;5061512;28;20052;-74
2023/05/11 09:01:52;;;;;;;4.10;3.70;;;;;;;;;;5062285;28;20125;-74
2023/05/11 09:04:20;;;;;;;5.72;3.55;;;;;;;;;;5043802;28;20036;-74
2023/05/11 09:06:46;;;;;;;3.72;3.33;;;;;;;;;;5057835;28;20047;-74
2023/05/11 09:09:12;;;;;;;3.42;3.13;;;;;;;;;;5043602;28;20044;-74
2023/05/11 09:11:38;;;;;;;3.10;2.83;;;;;;;;;;5059655;28;20529;-75
2023/05/11 09:14:05;;;;;;;4.47;2.97;;;;;;;;;;5059872;28;20467;-73
2023/05/11 09:16:31;;;;;;;3.63;3.28;;;;;;;;;;5058904;28;20128;-74
2023/05/11 09:19:00;;;;;;;4.47;3.45;;;;;;;;;;5061955;28;20061;-73
2023/05/11 09:21:27;;;;;;;4.07;3.67;;;;;;;;;;5063878;28;20040;-73
2023/05/11 09:23:55;;;;;;;3.58;3.20;;;;;;;;;;5079159;28;20150;-74
2023/05/11 09:26:23;;;;;;;7.05;3.65;;;;;;;;;;5063494;28;20124;-73
2023/05/11 09:28:50;;;;;;;4.85;3.30;;;;;;;;;;5064100;28;20090;-74
2023/05/11 09:31:35;;;;;;;3.60;3.28;;;;;;;;;;5062766;28;20185;-74
2023/05/11 09:34:13;;;;;;;3.50;3.20;;;;;;;;;;5045825;28;20664;-74
2023/05/11 09:36:40;;;;;;;3.75;3.45;;;;;;;;;;5060981;28;20044;-74
2023/05/11 09:39:06;;;;;;;4.00;3.70;;;;;;;;;;5062562;28;20052;-74
2023/05/11 09:41:32;;;;;;;4.30;3.90;;;;;;;;;;5065629;28;20051;-74
2023/05/11 09:44:09;;;;;;;3.63;3.30;;;;;;;;;;5059716;28;20168;-73
2023/05/11 09:46:39;;;;;;;3.78;3.47;;;;;;;;;;5039280;28;20040;-73
2023/05/11 09:49:05;;;;;;;3.78;3.47;;;;;;;;;;5040179;28;20052;-76
2023/05/11 09:51:34;;;;;;;3.38;3.08;;;;;;;;;;5041516;28;20097;-76
2023/05/11 09:54:01;;;;;;;4.75;3.33;;;;;;;;;;5041374;28;20080;-76
2023/05/11 09:56:46;;;;;;;3.33;3.13;;;;;;;;;;5057319;28;20040;-77
2023/05/11 09:59:14;;;;;;;3.70;3.40;;;;;;;;;;5040291;28;20048;-76
2023/05/11 10:01:40;;;;;;;3.63;3.33;;;;;;;;;;5060924;28;20085;-77
2023/05/11 10:04:09;;;;;;;3.45;3.17;;;;;;;;;;5041360;28;20047;-76
2023/05/11 10:06:45;;;;;;;4.13;3.17;;;;;;;;;;5058793;28;20044;-76
2023/05/11 10:09:12;;;;;;;3.45;3.25;;;;;;;;;;5059611;28;20074;-76
2023/05/11 10:11:43;;;;;;;3.85;3.55;;;;;;;;;;5057464;28;20155;-76
2023/05/11 10:14:10;;;;;;;3.90;3.60;;;;;;;;;;5058924;28;20040;-76
2023/05/11 10:16:37;;;;;;;4.20;3.90;;;;;;;;;;5061828;28;20044;-76
2023/05/11 10:19:03;;;;;;;3.90;3.50;;;;;;;;;;5058407;28;20067;-76
2023/05/11 10:21:29;;;;;;;3.55;3.25;;;;;;;;;;5060424;28;20119;-76
2023/05/11 10:23:56;;;;;;;4.03;3.65;;;;;;;;;;5073995;28;20601;-76
2023/05/11 10:26:23;;;;;;;3.60;3.30;;;;;;;;;;5062190;28;20045;-75
2023/05/11 10:28:50;;;;;;;3.60;3.30;;;;;;;;;;5060710;28;20506;-75
2023/05/11 10:31:22;;;;;;;3.88;3.58;;;;;;;;;;5058549;28;20055;-74
2023/05/11 10:33:50;;;;;;;5.45;3.75;;;;;;;;;;5075825;28;20032;-74
2023/05/11 10:36:20;;;;;;;4.40;4.00;;;;;;;;;;5055914;28;20048;-75
2023/05/11 10:38:46;;;;;;;5.18;3.88;;;;;;;;;;5055695;28;20060;-74
2023/05/11 10:41:23;;;;;;;4.25;3.85;;;;;;;;;;5056021;28;20487;-74
2023/05/11 10:44:04;;;;;;;4.65;4.32;;;;;;;;;;5058903;28;20040;-75
2023/05/11 10:46:33;;;;;;;6.57;5.68;;;;;;;;;;5061837;28;20453;-75
2023/05/11 10:49:17;;;;;;;6.78;6.10;;;;;;;;;;5055130;28;20036;-75
2023/05/11 10:51:51;;;;;;;6.28;5.68;;;;;;;;;;5058865;28;20760;-72
2023/05/11 10:54:26;;;;;;;7.03;6.32;;;;;;;;;;5040644;28;20054;-74
2023/05/11 10:57:05;;;;;;;8.00;7.20;;;;;;;;;;5071424;28;20044;-73
2023/05/11 10:59:50;;;;;;;8.70;7.80;;;;;;;;;;5044366;28;20055;-73
2023/05/11 11:02:17;;;;;;;9.43;7.82;;;;;;;;;;5056320;28;20051;-75
2023/05/11 11:04:48;;;;;;;8.82;6.55;;;;;;;;;;5059175;28;20135;-75
2023/05/11 11:07:18;;;;;;;8.50;7.43;;;;;;;;;;5056971;28;20209;-76
2023/05/11 11:09:51;;;;;;;8.75;7.85;;;;;;;;;;5039467;28;20044;-76
2023/05/11 11:12:18;;;;;;;11.10;8.85;;;;;;;;;;5058916;28;20050;-76
2023/05/11 11:14:58;;;;;;;11.27;8.93;;;;;;;;;;5060638;28;20090;-75
2023/05/11 11:17:26;;;;;;;11.23;8.50;;;;;;;;;;5060537;28;20553;-76
2023/05/11 11:19:53;;;;;;;10.40;8.77;;;;;;;;;;5060525;28;21031;-76
2023/05/11 11:22:34;;;;;;;12.38;9.70;;;;;;;;;;5059834;28;20055;-76
2023/05/11 11:25:07;;;;;;;11.20;8.77;;;;;;;;;;5058019;28;21665;-76
2023/05/11 11:27:40;;;;;;;9.65;8.65;;;;;;;;;;5067852;28;20037;-76
2023/05/11 11:30:16;;;;;;;9.85;8.55;;;;;;;;;;5082485;28;20051;-75
2023/05/11 11:32:42;;;;;;;11.18;8.60;;;;;;;;;;5084601;28;20202;-76
2023/05/11 11:35:28;;;;;;;11.48;8.52;;;;;;;;;;5085083;28;20074;-76
2023/05/11 11:38:03;;;;;;;9.60;8.15;;;;;;;;;;5067908;28;20044;-76
2023/05/11 11:40:36;;;;;;;8.05;7.20;;;;;;;;;;5058550;28;20554;-76
2023/05/11 11:43:18;;;;;;;9.10;7.45;;;;;;;;;;5045670;28;20182;-76
2023/05/11 11:45:58;;;;;;;7.28;6.57;;;;;;;;;;5058993;28;20052;-78
2023/05/11 11:48:30;;;;;;;6.55;5.90;;;;;;;;;;5058089;28;20798;-77
2023/05/11 11:51:15;;;;;;;6.80;6.15;;;;;;;;;;5054657;28;20068;-77
2023/05/11 11:53:42;;;;;;;7.70;6.80;;;;;;;;;;5059004;28;20214;-77
2023/05/11 11:56:14;;;;;;;6.53;5.93;;;;;;;;;;5056039;28;20212;-77
2023/05/11 11:58:40;;;;;;;6.57;5.35;;;;;;;;;;5040666;28;20044;-76
2023/05/11 12:01:07;;;;;;;10.32;4.95;;;;;;;;;;5054072;28;20201;-77
2023/05/11 12:03:35;;;;;;;3.72;3.45;;;;;;;;;;5056511;28;20134;-78
2023/05/11 12:06:01;;;;;;;6.10;3.10;;;;;;;;;;5056386;28;20055;-78
2023/05/11 12:08:32;;;;;;;5.28;4.07;;;;;;;;;;5055594;28;20067;-78
2023/05/11 12:10:58;;;;;;;13.40;4.65;;;;;;;;;;5056127;28;20048;-78
2023/05/11 12:13:25;;;;;;;3.75;3.45;;;;;;;;;;5069409;28;20040;-78
2023/05/11 12:16:08;;;;;;;4.15;3.72;;;;;;;;;;5060285;28;20041;-78
2023/05/11 12:18:34;;;;;;;4.53;4.18;;;;;;;;;;5056712;28;20760;-78
2023/05/11 12:21:00;;;;;;;5.85;4.45;;;;;;;;;;5060623;28;20209;-78
2023/05/11 12:23:26;;;;;;;5.65;5.07;;;;;;;;;;5055710;28;20121;-78
2023/05/11 12:26:01;;;;;;;4.70;4.30;;;;;;;;;;5058339;28;20181;-79
2023/05/11 12:28:28;;;;;;;5.88;4.57;;;;;;;;;;5060293;28;20079;-78
2023/05/11 12:30:57;;;;;;;4.70;4.30;;;;;;;;;;5074438;28;20117;-78
2023/05/11 12:33:23;;;;;;;5.28;4.20;;;;;;;;;;5043643;28;20098;-76
2023/05/11 12:35:53;;;;;;;5.85;3.97;;;;;;;;;;5046326;28;20052;-77
2023/05/11 12:38:20;;;;;;;3.90;3.60;;;;;;;;;;5063847;28;20532;-78
2023/05/11 12:40:49;;;;;;;4.40;4.00;;;;;;;;;;5064208;28;20040;-77
2023/05/11 12:43:19;;;;;;;5.30;4.00;;;;;;;;;;5045097;28;20155;-77
2023/05/11 12:45:46;;;;;;;4.93;3.42;;;;;;;;;;5062516;28;20494;-78
2023/05/11 12:48:13;;;;;;;4.53;4.13;;;;;;;;;;5065911;28;20033;-77
2023/05/11 12:50:40;;;;;;;3.70;3.40;;;;;;;;;;5061513;28;20111;-77
2023/05/11 12:53:17;;;;;;;3.78;3.47;;;;;;;;;;5060020;28;20085;-77
2023/05/11 12:55:43;;;;;;;4.88;3.67;;;;;;;;;;5040251;28;20044;-78
2023/05/11 12:58:14;;;;;;;4.07;3.78;;;;;;;;;;5022708;28;20047;-77
2023/05/11 13:00:51;;;;;;;3.75;3.45;;;;;;;;;;5055507;28;20036;-78
2023/05/11 13:03:31;;;;;;;3.95;3.65;;;;;;;;;;5036782;28;20586;-78
2023/05/11 13:06:04;;;;;;;4.22;3.72;;;;;;;;;;5038217;28;20048;-78
2023/05/11 13:08:30;;;;;;;6.97;3.85;;;;;;;;;;5055764;28;20032;-77
2023/05/11 13:10:56;;;;;;;5.47;4.68;;;;;;;;;;5059741;28;20556;-78
2023/05/11 13:13:26;;;;;;;5.18;4.47;;;;;;;;;;5074910;28;20051;-78
2023/05/11 13:15:52;;;;;;;5.18;4.05;;;;;;;;;;5042373;28;20044;-77
2023/05/11 13:18:18;;;;;;;4.90;4.30;;;;;;;;;;5044692;28;20461;-77
2023/05/11 13:20:45;;;;;;;5.40;4.80;;;;;;;;;;5055476;28;20495;-78
2023/05/11 13:23:12;;;;;;;5.80;4.93;;;;;;;;;;5073986;28;20131;-77
2023/05/11 13:25:44;;;;;;;5.65;4.95;;;;;;;;;;5057397;28;20051;-76
2023/05/11 13:28:11;;;;;;;5.97;5.15;;;;;;;;;;5058184;28;20048;-77
2023/05/11 13:30:37;;;;;;;5.28;4.78;;;;;;;;;;5039552;28;20071;-76
2023/05/11 13:33:03;;;;;;;4.93;4.43;;;;;;;;;;5057030;28;20109;-78
2023/05/11 13:35:29;;;;;;;5.20;4.70;;;;;;;;;;5054513;28;20098;-79
2023/05/11 13:37:56;;;;;;;5.07;4.57;;;;;;;;;;5063860;28;20049;-78
2023/05/11 13:40:22;;;;;;;4.80;4.28;;;;;;;;;;5057309;28;20050;-77
2023/05/11 13:42:49;;;;;;;5.15;4.40;;;;;;;;;;5060106;28;20055;-77
2023/05/11 13:45:15;;;;;;;4.57;4.13;;;;;;;;;;5043172;28;20174;-77
2023/05/11 13:47:41;;;;;;;6.88;4.88;;;;;;;;;;5062436;28;20044;-76
2023/05/11 13:50:08;;;;;;;5.43;4.93;;;;;;;;;;5043669;28;20045;-77
2023/05/11 13:52:34;;;;;;;4.80;4.30;;;;;;;;;;5057175;28;20059;-78
2023/05/11 13:55:00;;;;;;;6.50;4.05;;;;;;;;;;5047154;28;20044;-78
2023/05/11 13:57:26;;;;;;;6.00;5.40;;;;;;;;;;5065069;28;20059;-78
2023/05/11 13:59:52;;;;;;;7.50;5.10;;;;;;;;;;5047730;28;20072;-78
2023/05/11 14:02:18;;;;;;;6.05;5.22;;;;;;;;;;5048467;28;20373;-78
2023/05/11 14:04:44;;;;;;;5.95;4.97;;;;;;;;;;5064991;28;20055;-78
2023/05/11 14:07:10;;;;;;;6.15;5.53;;;;;;;;;;5047192;28;20407;-77
2023/05/11 14:09:37;;;;;;;7.75;6.22;;;;;;;;;;5063517;28;20051;-77
2023/05/11 14:12:03;;;;;;;7.20;5.40;;;;;;;;;;5065077;28;20100;-78
2023/05/11 14:14:29;;;;;;;6.63;5.88;;;;;;;;;;5063992;28;20403;-78
2023/05/11 14:16:56;;;;;;;7.22;6.53;;;;;;;;;;5080776;28;20549;-78
2023/05/11 14:19:22;;;;;;;7.78;6.50;;;;;;;;;;5063241;28;20100;-77
2023/05/11 14:21:48;;;;;;;6.65;6.03;;;;;;;;;;5064242;28;20044;-76
2023/05/11 14:24:17;;;;;;;5.82;5.28;;;;;;;;;;5066009;28;21775;-77
2023/05/11 14:26:46;;;;;;;6.10;5.15;;;;;;;;;;5049035;28;20040;-78
2023/05/11 14:29:15;;;;;;;5.80;5.15;;;;;;;;;;5048744;28;20079;-77
2023/05/11 14:31:41;;;;;;;5.15;4.65;;;;;;;;;;5061140;28;20064;-78
2023/05/11 14:34:07;;;;;;;6.35;5.65;;;;;;;;;;5076467;28;20036;-77
2023/05/11 14:36:34;;;;;;;6.03;4.72;;;;;;;;;;5050177;28;20101;-78
2023/05/11 14:39:00;;;;;;;7.40;5.53;;;;;;;;;;5060419;28;20048;-77